sensor_id;sensor_type;location;lat;lon;timestamp;P1;durP1;ratioP1;P2;durP2;ratioP2
24681;SDS011;12802;53.390;-2.328;2023-07-16T00:00:31;7.80;;;1.70;;
24681;SDS011;12802;53.390;-2.328;2023-07-16T00:02:57;8.77;;;1.40;;
24681;SDS011;12802;53.390;-2.328;2023-07-16T00:05:23;7.38;;;1.45;;
24681;SDS011;12802;53.390;-2.328;2023-07-16T00:07:49;5.18;;;1.42;;
24681;SDS011;12802;53.390;-2.328;2023-07-16T00:10:14;4.00;;;1.40;;
24681;SDS011;12802;53.390;-2.328;2023-07-16T00:12:40;4.80;;;1.38;;
24681;SDS011;12802;53.390;-2.328;2023-07-16T00:15:06;6.50;;;1.50;;
24681;SDS011;12802;53.390;-2.328;2023-07-16T00:17:33;6.18;;;1.00;;
24681;SDS011;12802;53.390;-2.328;2023-07-16T00:19:59;6.45;;;1.40;;
24681;SDS011;12802;53.390;-2.328;2023-07-16T00:22:25;4.05;;;1.15;;
24681;SDS011;12802;53.390;-2.328;2023-07-16T00:24:51;6.53;;;1.30;;
24681;SDS011;12802;53.390;-2.328;2023-07-16T00:27:17;7.63;;;0.98;;
24681;SDS011;12802;53.390;-2.328;2023-07-16T00:29:43;6.65;;;1.10;;
24681;SDS011;12802;53.390;-2.328;2023-07-16T00:32:09;3.55;;;1.10;;
24681;SDS011;12802;53.390;-2.328;2023-07-16T00:34:36;7.90;;;1.45;;
24681;SDS011;12802;53.390;-2.328;2023-07-16T00:37:01;5.28;;;1.10;;
24681;SDS011;12802;53.390;-2.328;2023-07-16T00:39:28;9.05;;;1.17;;
24681;SDS011;12802;53.390;-2.328;2023-07-16T00:41:54;4.25;;;1.13;;
24681;SDS011;12802;53.390;-2.328;2023-07-16T00:44:21;5.75;;;1.02;;
24681;SDS011;12802;53.390;-2.328;2023-07-16T00:46:47;5.90;;;1.10;;
24681;SDS011;12802;53.390;-2.328;2023-07-16T00:49:12;3.85;;;0.95;;
24681;SDS011;12802;53.390;-2.328;2023-07-16T00:51:38;3.22;;;0.82;;
24681;SDS011;12802;53.390;-2.328;2023-07-16T00:54:04;2.65;;;0.98;;
24681;SDS011;12802;53.390;-2.328;2023-07-16T00:56:30;1.75;;;0.65;;
24681;SDS011;12802;53.390;-2.328;2023-07-16T00:58:57;2.13;;;0.50;;
24681;SDS011;12802;53.390;-2.328;2023-07-16T01:01:23;2.28;;;0.60;;
24681;SDS011;12802;53.390;-2.328;2023-07-16T01:03:50;5.55;;;0.80;;
24681;SDS011;12802;53.390;-2.328;2023-07-16T01:06:24;3.80;;;0.60;;
24681;SDS011;12802;53.390;-2.328;2023-07-16T01:09:10;3.38;;;0.63;;
24681;SDS011;12802;53.390;-2.328;2023-07-16T01:11:42;4.68;;;0.82;;
24681;SDS011;12802;53.390;-2.328;2023-07-16T01:14:08;1.55;;;0.82;;
24681;SDS011;12802;53.390;-2.328;2023-07-16T01:16:35;3.15;;;0.73;;
24681;SDS011;12802;53.390;-2.328;2023-07-16T01:19:02;4.30;;;0.77;;
24681;SDS011;12802;53.390;-2.328;2023-07-16T01:21:31;5.63;;;0.90;;
24681;SDS011;12802;53.390;-2.328;2023-07-16T01:24:19;2.20;;;0.73;;
24681;SDS011;12802;53.390;-2.328;2023-07-16T01:30:03;1.17;;;0.57;;
24681;SDS011;12802;53.390;-2.328;2023-07-16T01:32:30;1.92;;;0.80;;
24681;SDS011;12802;53.390;-2.328;2023-07-16T01:35:00;3.92;;;0.95;;
24681;SDS011;12802;53.390;-2.328;2023-07-16T01:37:27;2.50;;;1.15;;
24681;SDS011;12802;53.390;-2.328;2023-07-16T01:39:53;4.28;;;1.25;;
24681;SDS011;12802;53.390;-2.328;2023-07-16T01:42:20;2.80;;;1.13;;
24681;SDS011;12802;53.390;-2.328;2023-07-16T01:44:45;2.88;;;1.00;;
24681;SDS011;12802;53.390;-2.328;2023-07-16T01:47:59;3.10;;;1.50;;
24681;SDS011;12802;53.390;-2.328;2023-07-16T01:50:04;6.32;;;2.55;;
24681;SDS011;12802;53.390;-2.328;2023-07-16T01:52:30;4.25;;;2.17;;
24681;SDS011;12802;53.390;-2.328;2023-07-16T01:54:56;5.18;;;2.40;;
24681;SDS011;12802;53.390;-2.328;2023-07-16T01:57:22;4.65;;;2.17;;
24681;SDS011;12802;53.390;-2.328;2023-07-16T01:59:47;3.47;;;2.30;;
24681;SDS011;12802;53.390;-2.328;2023-07-16T02:02:13;6.82;;;2.20;;
24681;SDS011;12802;53.390;-2.328;2023-07-16T02:04:39;4.22;;;3.25;;
24681;SDS011;12802;53.390;-2.328;2023-07-16T02:07:05;6.50;;;3.22;;
24681;SDS011;12802;53.390;-2.328;2023-07-16T02:09:30;6.18;;;3.33;;
24681;SDS011;12802;53.390;-2.328;2023-07-16T02:11:58;7.88;;;3.20;;
24681;SDS011;12802;53.390;-2.328;2023-07-16T02:14:24;7.85;;;2.75;;
24681;SDS011;12802;53.390;-2.328;2023-07-16T02:16:50;6.78;;;2.50;;
24681;SDS011;12802;53.390;-2.328;2023-07-16T02:19:16;9.90;;;2.92;;
24681;SDS011;12802;53.390;-2.328;2023-07-16T02:21:41;8.68;;;3.15;;
24681;SDS011;12802;53.390;-2.328;2023-07-16T02:24:07;11.63;;;2.53;;
24681;SDS011;12802;53.390;-2.328;2023-07-16T02:26:33;6.45;;;3.10;;
24681;SDS011;12802;53.390;-2.328;2023-07-16T02:28:59;10.35;;;3.00;;
24681;SDS011;12802;53.390;-2.328;2023-07-16T02:31:25;9.48;;;3.20;;
24681;SDS011;12802;53.390;-2.328;2023-07-16T02:33:50;7.03;;;3.13;;
24681;SDS011;12802;53.390;-2.328;2023-07-16T02:36:16;8.55;;;3.83;;
24681;SDS011;12802;53.390;-2.328;2023-07-16T02:38:42;13.38;;;3.60;;
24681;SDS011;12802;53.390;-2.328;2023-07-16T02:41:07;10.65;;;3.25;;
24681;SDS011;12802;53.390;-2.328;2023-07-16T02:43:33;8.20;;;3.25;;
24681;SDS011;12802;53.390;-2.328;2023-07-16T02:45:59;11.35;;;3.25;;
24681;SDS011;12802;53.390;-2.328;2023-07-16T02:48:24;7.68;;;3.20;;
24681;SDS011;12802;53.390;-2.328;2023-07-16T02:50:50;9.00;;;3.70;;
24681;SDS011;12802;53.390;-2.328;2023-07-16T02:53:16;10.25;;;2.65;;
24681;SDS011;12802;53.390;-2.328;2023-07-16T02:55:41;12.48;;;3.05;;
24681;SDS011;12802;53.390;-2.328;2023-07-16T02:58:10;12.27;;;2.47;;
24681;SDS011;12802;53.390;-2.328;2023-07-16T03:00:35;9.90;;;3.00;;
24681;SDS011;12802;53.390;-2.328;2023-07-16T03:03:01;9.45;;;2.63;;
24681;SDS011;12802;53.390;-2.328;2023-07-16T03:05:27;11.75;;;2.83;;
24681;SDS011;12802;53.390;-2.328;2023-07-16T03:07:53;9.13;;;3.08;;
24681;SDS011;12802;53.390;-2.328;2023-07-16T03:10:20;11.45;;;3.42;;
24681;SDS011;12802;53.390;-2.328;2023-07-16T03:12:46;11.88;;;2.92;;
24681;SDS011;12802;53.390;-2.328;2023-07-16T03:15:13;12.35;;;3.42;;
24681;SDS011;12802;53.390;-2.328;2023-07-16T03:17:39;10.30;;;2.85;;
24681;SDS011;12802;53.390;-2.328;2023-07-16T03:20:05;11.13;;;3.53;;
24681;SDS011;12802;53.390;-2.328;2023-07-16T03:22:33;10.65;;;3.38;;
24681;SDS011;12802;53.390;-2.328;2023-07-16T03:24:58;13.77;;;2.78;;
24681;SDS011;12802;53.390;-2.328;2023-07-16T03:27:24;12.95;;;2.45;;
24681;SDS011;12802;53.390;-2.328;2023-07-16T03:29:55;12.55;;;2.63;;
24681;SDS011;12802;53.390;-2.328;2023-07-16T03:32:21;11.57;;;3.03;;
24681;SDS011;12802;53.390;-2.328;2023-07-16T03:34:47;12.48;;;2.83;;
24681;SDS011;12802;53.390;-2.328;2023-07-16T03:37:13;11.80;;;2.97;;
24681;SDS011;12802;53.390;-2.328;2023-07-16T03:39:38;9.25;;;3.33;;
24681;SDS011;12802;53.390;-2.328;2023-07-16T03:42:04;8.50;;;2.97;;
24681;SDS011;12802;53.390;-2.328;2023-07-16T03:44:30;7.30;;;2.75;;
24681;SDS011;12802;53.390;-2.328;2023-07-16T03:46:57;13.15;;;3.20;;
24681;SDS011;12802;53.390;-2.328;2023-07-16T03:49:23;8.45;;;3.03;;
24681;SDS011;12802;53.390;-2.328;2023-07-16T03:51:49;9.38;;;3.28;;
24681;SDS011;12802;53.390;-2.328;2023-07-16T03:54:15;11.52;;;2.80;;
24681;SDS011;12802;53.390;-2.328;2023-07-16T03:56:42;10.15;;;3.10;;
24681;SDS011;12802;53.390;-2.328;2023-07-16T03:59:07;11.00;;;3.15;;
24681;SDS011;12802;53.390;-2.328;2023-07-16T04:01:33;8.32;;;2.90;;
24681;SDS011;12802;53.390;-2.328;2023-07-16T04:03:59;13.65;;;3.13;;
24681;SDS011;12802;53.390;-2.328;2023-07-16T04:06:25;14.10;;;2.88;;
24681;SDS011;12802;53.390;-2.328;2023-07-16T04:08:51;15.02;;;3.38;;
24681;SDS011;12802;53.390;-2.328;2023-07-16T04:11:17;7.32;;;2.80;;
24681;SDS011;12802;53.390;-2.328;2023-07-16T04:13:43;14.48;;;3.28;;
24681;SDS011;12802;53.390;-2.328;2023-07-16T04:16:08;11.77;;;3.20;;
24681;SDS011;12802;53.390;-2.328;2023-07-16T04:18:34;12.15;;;3.03;;
24681;SDS011;12802;53.390;-2.328;2023-07-16T04:21:00;10.07;;;3.30;;
24681;SDS011;12802;53.390;-2.328;2023-07-16T04:23:26;9.32;;;3.00;;
24681;SDS011;12802;53.390;-2.328;2023-07-16T04:25:52;10.52;;;3.22;;
24681;SDS011;12802;53.390;-2.328;2023-07-16T04:28:19;15.20;;;3.20;;
24681;SDS011;12802;53.390;-2.328;2023-07-16T04:30:45;10.48;;;2.85;;
24681;SDS011;12802;53.390;-2.328;2023-07-16T04:33:11;12.63;;;3.58;;
24681;SDS011;12802;53.390;-2.328;2023-07-16T04:35:36;10.32;;;3.17;;
24681;SDS011;12802;53.390;-2.328;2023-07-16T04:38:02;13.82;;;3.22;;
24681;SDS011;12802;53.390;-2.328;2023-07-16T04:40:31;11.73;;;3.53;;
24681;SDS011;12802;53.390;-2.328;2023-07-16T04:42:56;15.65;;;3.42;;
24681;SDS011;12802;53.390;-2.328;2023-07-16T04:45:22;13.25;;;3.67;;
24681;SDS011;12802;53.390;-2.328;2023-07-16T04:47:48;15.02;;;3.60;;
24681;SDS011;12802;53.390;-2.328;2023-07-16T04:50:14;9.80;;;3.20;;
24681;SDS011;12802;53.390;-2.328;2023-07-16T04:52:39;11.35;;;3.17;;
24681;SDS011;12802;53.390;-2.328;2023-07-16T04:55:05;12.25;;;3.05;;
24681;SDS011;12802;53.390;-2.328;2023-07-16T04:57:32;17.58;;;3.30;;
24681;SDS011;12802;53.390;-2.328;2023-07-16T04:59:58;7.57;;;2.92;;
24681;SDS011;12802;53.390;-2.328;2023-07-16T05:02:24;11.85;;;2.70;;
24681;SDS011;12802;53.390;-2.328;2023-07-16T05:04:50;9.05;;;2.67;;
24681;SDS011;12802;53.390;-2.328;2023-07-16T05:07:15;8.48;;;2.53;;
24681;SDS011;12802;53.390;-2.328;2023-07-16T05:09:42;9.90;;;2.80;;
24681;SDS011;12802;53.390;-2.328;2023-07-16T05:12:08;11.93;;;3.03;;
24681;SDS011;12802;53.390;-2.328;2023-07-16T05:14:42;20.42;;;3.40;;
24681;SDS011;12802;53.390;-2.328;2023-07-16T05:17:10;9.15;;;2.80;;
24681;SDS011;12802;53.390;-2.328;2023-07-16T05:19:35;12.57;;;2.85;;
24681;SDS011;12802;53.390;-2.328;2023-07-16T05:22:01;7.53;;;2.60;;
24681;SDS011;12802;53.390;-2.328;2023-07-16T05:24:27;8.88;;;2.90;;
24681;SDS011;12802;53.390;-2.328;2023-07-16T05:26:53;9.80;;;3.10;;
24681;SDS011;12802;53.390;-2.328;2023-07-16T05:29:19;10.43;;;2.97;;
24681;SDS011;12802;53.390;-2.328;2023-07-16T05:31:45;15.77;;;3.38;;
24681;SDS011;12802;53.390;-2.328;2023-07-16T05:34:11;14.27;;;3.40;;
24681;SDS011;12802;53.390;-2.328;2023-07-16T05:36:38;13.48;;;3.03;;
24681;SDS011;12802;53.390;-2.328;2023-07-16T05:39:03;11.25;;;3.33;;
24681;SDS011;12802;53.390;-2.328;2023-07-16T05:41:29;12.65;;;3.72;;
24681;SDS011;12802;53.390;-2.328;2023-07-16T05:43:55;21.88;;;3.75;;
24681;SDS011;12802;53.390;-2.328;2023-07-16T05:46:21;11.65;;;3.30;;
24681;SDS011;12802;53.390;-2.328;2023-07-16T05:48:46;14.98;;;3.70;;
24681;SDS011;12802;53.390;-2.328;2023-07-16T05:51:12;10.20;;;3.53;;
24681;SDS011;12802;53.390;-2.328;2023-07-16T05:53:38;17.73;;;3.80;;
24681;SDS011;12802;53.390;-2.328;2023-07-16T05:56:03;10.63;;;3.60;;
24681;SDS011;12802;53.390;-2.328;2023-07-16T05:58:29;17.05;;;4.13;;
24681;SDS011;12802;53.390;-2.328;2023-07-16T06:00:55;18.23;;;3.40;;
24681;SDS011;12802;53.390;-2.328;2023-07-16T06:03:20;14.10;;;3.88;;
24681;SDS011;12802;53.390;-2.328;2023-07-16T06:05:46;14.27;;;3.85;;
24681;SDS011;12802;53.390;-2.328;2023-07-16T06:08:12;16.45;;;4.38;;
24681;SDS011;12802;53.390;-2.328;2023-07-16T06:10:38;15.65;;;3.60;;
24681;SDS011;12802;53.390;-2.328;2023-07-16T06:13:04;14.27;;;3.75;;
24681;SDS011;12802;53.390;-2.328;2023-07-16T06:15:30;24.17;;;4.75;;
24681;SDS011;12802;53.390;-2.328;2023-07-16T06:17:55;21.92;;;3.85;;
24681;SDS011;12802;53.390;-2.328;2023-07-16T06:20:21;18.10;;;4.03;;
24681;SDS011;12802;53.390;-2.328;2023-07-16T06:22:47;17.45;;;4.32;;
24681;SDS011;12802;53.390;-2.328;2023-07-16T06:25:12;15.98;;;4.00;;
24681;SDS011;12802;53.390;-2.328;2023-07-16T06:27:38;15.10;;;4.03;;
24681;SDS011;12802;53.390;-2.328;2023-07-16T06:30:04;15.63;;;4.03;;
24681;SDS011;12802;53.390;-2.328;2023-07-16T06:32:31;16.55;;;3.35;;
24681;SDS011;12802;53.390;-2.328;2023-07-16T06:34:56;10.07;;;3.72;;
24681;SDS011;12802;53.390;-2.328;2023-07-16T06:37:22;13.90;;;4.20;;
24681;SDS011;12802;53.390;-2.328;2023-07-16T06:39:49;15.85;;;3.63;;
24681;SDS011;12802;53.390;-2.328;2023-07-16T06:42:15;13.27;;;3.80;;
24681;SDS011;12802;53.390;-2.328;2023-07-16T06:44:41;11.60;;;2.97;;
24681;SDS011;12802;53.390;-2.328;2023-07-16T06:47:07;19.05;;;4.13;;
24681;SDS011;12802;53.390;-2.328;2023-07-16T06:49:33;10.15;;;3.15;;
24681;SDS011;12802;53.390;-2.328;2023-07-16T06:52:02;16.58;;;3.95;;
24681;SDS011;12802;53.390;-2.328;2023-07-16T06:54:28;15.02;;;3.75;;
24681;SDS011;12802;53.390;-2.328;2023-07-16T06:56:53;14.38;;;3.58;;
24681;SDS011;12802;53.390;-2.328;2023-07-16T06:59:19;10.00;;;2.85;;
24681;SDS011;12802;53.390;-2.328;2023-07-16T07:01:45;10.50;;;3.17;;
24681;SDS011;12802;53.390;-2.328;2023-07-16T07:04:11;12.48;;;3.38;;
24681;SDS011;12802;53.390;-2.328;2023-07-16T07:06:36;17.75;;;3.95;;
24681;SDS011;12802;53.390;-2.328;2023-07-16T07:09:02;9.43;;;3.22;;
24681;SDS011;12802;53.390;-2.328;2023-07-16T07:11:28;12.75;;;3.28;;
24681;SDS011;12802;53.390;-2.328;2023-07-16T07:13:54;10.75;;;3.03;;
24681;SDS011;12802;53.390;-2.328;2023-07-16T07:16:21;11.90;;;2.95;;
24681;SDS011;12802;53.390;-2.328;2023-07-16T07:18:47;12.13;;;3.50;;
24681;SDS011;12802;53.390;-2.328;2023-07-16T07:21:13;12.82;;;3.17;;
24681;SDS011;12802;53.390;-2.328;2023-07-16T07:23:38;12.02;;;3.00;;
24681;SDS011;12802;53.390;-2.328;2023-07-16T07:26:05;11.68;;;3.25;;
24681;SDS011;12802;53.390;-2.328;2023-07-16T07:28:31;12.45;;;3.10;;
24681;SDS011;12802;53.390;-2.328;2023-07-16T07:30:56;9.73;;;3.28;;
24681;SDS011;12802;53.390;-2.328;2023-07-16T07:33:22;11.25;;;3.08;;
24681;SDS011;12802;53.390;-2.328;2023-07-16T07:35:48;10.93;;;2.97;;
24681;SDS011;12802;53.390;-2.328;2023-07-16T07:38:13;13.10;;;3.35;;
24681;SDS011;12802;53.390;-2.328;2023-07-16T07:40:41;13.70;;;3.33;;
24681;SDS011;12802;53.390;-2.328;2023-07-16T07:43:08;14.93;;;3.15;;
24681;SDS011;12802;53.390;-2.328;2023-07-16T07:45:34;9.85;;;3.15;;
24681;SDS011;12802;53.390;-2.328;2023-07-16T07:48:00;11.48;;;2.70;;
24681;SDS011;12802;53.390;-2.328;2023-07-16T07:50:25;12.75;;;3.67;;
24681;SDS011;12802;53.390;-2.328;2023-07-16T07:52:51;7.50;;;2.55;;
24681;SDS011;12802;53.390;-2.328;2023-07-16T07:55:17;11.35;;;2.78;;
24681;SDS011;12802;53.390;-2.328;2023-07-16T07:57:43;13.35;;;3.08;;
24681;SDS011;12802;53.390;-2.328;2023-07-16T08:00:09;8.13;;;2.65;;
24681;SDS011;12802;53.390;-2.328;2023-07-16T08:02:40;12.93;;;2.50;;
24681;SDS011;12802;53.390;-2.328;2023-07-16T08:05:06;12.38;;;2.83;;
24681;SDS011;12802;53.390;-2.328;2023-07-16T08:07:32;9.60;;;2.90;;
24681;SDS011;12802;53.390;-2.328;2023-07-16T08:09:58;12.60;;;3.10;;
24681;SDS011;12802;53.390;-2.328;2023-07-16T08:12:24;13.80;;;2.53;;
24681;SDS011;12802;53.390;-2.328;2023-07-16T08:14:50;14.85;;;3.03;;
24681;SDS011;12802;53.390;-2.328;2023-07-16T08:17:15;9.73;;;2.80;;
24681;SDS011;12802;53.390;-2.328;2023-07-16T08:19:41;9.45;;;2.22;;
24681;SDS011;12802;53.390;-2.328;2023-07-16T08:22:07;10.05;;;2.30;;
24681;SDS011;12802;53.390;-2.328;2023-07-16T08:24:32;9.57;;;2.47;;
24681;SDS011;12802;53.390;-2.328;2023-07-16T08:26:58;8.50;;;2.75;;
24681;SDS011;12802;53.390;-2.328;2023-07-16T08:29:24;13.85;;;2.80;;
24681;SDS011;12802;53.390;-2.328;2023-07-16T08:31:50;9.88;;;2.30;;
24681;SDS011;12802;53.390;-2.328;2023-07-16T08:34:16;7.65;;;2.63;;
24681;SDS011;12802;53.390;-2.328;2023-07-16T08:36:42;18.95;;;3.10;;
24681;SDS011;12802;53.390;-2.328;2023-07-16T08:39:09;9.20;;;2.80;;
24681;SDS011;12802;53.390;-2.328;2023-07-16T08:41:35;10.38;;;2.80;;
24681;SDS011;12802;53.390;-2.328;2023-07-16T08:44:00;10.35;;;2.63;;
24681;SDS011;12802;53.390;-2.328;2023-07-16T08:46:27;8.60;;;2.70;;
24681;SDS011;12802;53.390;-2.328;2023-07-16T08:48:53;9.45;;;2.75;;
24681;SDS011;12802;53.390;-2.328;2023-07-16T08:51:19;9.43;;;2.75;;
24681;SDS011;12802;53.390;-2.328;2023-07-16T08:53:47;9.23;;;2.15;;
24681;SDS011;12802;53.390;-2.328;2023-07-16T08:56:12;12.60;;;2.83;;
24681;SDS011;12802;53.390;-2.328;2023-07-16T08:58:38;12.43;;;2.70;;
24681;SDS011;12802;53.390;-2.328;2023-07-16T09:01:07;8.85;;;2.65;;
24681;SDS011;12802;53.390;-2.328;2023-07-16T09:03:35;9.45;;;2.53;;
24681;SDS011;12802;53.390;-2.328;2023-07-16T09:06:01;8.02;;;2.22;;
24681;SDS011;12802;53.390;-2.328;2023-07-16T09:08:29;9.10;;;2.13;;
24681;SDS011;12802;53.390;-2.328;2023-07-16T09:10:55;9.73;;;2.33;;
24681;SDS011;12802;53.390;-2.328;2023-07-16T09:13:21;8.10;;;1.83;;
24681;SDS011;12802;53.390;-2.328;2023-07-16T09:15:52;9.50;;;2.00;;
24681;SDS011;12802;53.390;-2.328;2023-07-16T09:18:21;7.55;;;2.42;;
24681;SDS011;12802;53.390;-2.328;2023-07-16T09:20:58;8.98;;;2.00;;
24681;SDS011;12802;53.390;-2.328;2023-07-16T09:23:29;9.60;;;1.98;;
24681;SDS011;12802;53.390;-2.328;2023-07-16T09:25:56;7.63;;;2.20;;
24681;SDS011;12802;53.390;-2.328;2023-07-16T09:28:22;8.02;;;2.08;;
24681;SDS011;12802;53.390;-2.328;2023-07-16T09:30:48;12.15;;;2.30;;
24681;SDS011;12802;53.390;-2.328;2023-07-16T09:33:16;9.27;;;1.98;;
24681;SDS011;12802;53.390;-2.328;2023-07-16T09:35:43;9.73;;;2.30;;
24681;SDS011;12802;53.390;-2.328;2023-07-16T09:38:10;7.50;;;2.03;;
24681;SDS011;12802;53.390;-2.328;2023-07-16T09:40:36;8.52;;;1.95;;
24681;SDS011;12802;53.390;-2.328;2023-07-16T09:43:03;8.13;;;2.13;;
24681;SDS011;12802;53.390;-2.328;2023-07-16T09:45:29;8.23;;;1.88;;
24681;SDS011;12802;53.390;-2.328;2023-07-16T09:47:55;6.20;;;1.85;;
24681;SDS011;12802;53.390;-2.328;2023-07-16T09:50:24;8.02;;;1.77;;
24681;SDS011;12802;53.390;-2.328;2023-07-16T09:52:55;6.70;;;1.63;;
24681;SDS011;12802;53.390;-2.328;2023-07-16T09:55:22;8.02;;;1.83;;
24681;SDS011;12802;53.390;-2.328;2023-07-16T09:57:49;6.80;;;1.90;;
24681;SDS011;12802;53.390;-2.328;2023-07-16T10:00:17;6.53;;;1.88;;
24681;SDS011;12802;53.390;-2.328;2023-07-16T10:02:45;12.05;;;2.00;;
24681;SDS011;12802;53.390;-2.328;2023-07-16T10:05:12;9.32;;;1.90;;
24681;SDS011;12802;53.390;-2.328;2023-07-16T10:07:42;10.48;;;1.90;;
24681;SDS011;12802;53.390;-2.328;2023-07-16T10:10:14;6.35;;;1.75;;
24681;SDS011;12802;53.390;-2.328;2023-07-16T10:12:42;5.38;;;1.45;;
24681;SDS011;12802;53.390;-2.328;2023-07-16T10:15:24;8.60;;;1.90;;
24681;SDS011;12802;53.390;-2.328;2023-07-16T10:17:54;6.97;;;1.40;;
24681;SDS011;12802;53.390;-2.328;2023-07-16T10:20:30;5.88;;;1.50;;
24681;SDS011;12802;53.390;-2.328;2023-07-16T10:22:58;7.00;;;1.85;;
24681;SDS011;12802;53.390;-2.328;2023-07-16T10:25:34;8.48;;;1.60;;
24681;SDS011;12802;53.390;-2.328;2023-07-16T10:28:00;5.93;;;1.45;;
24681;SDS011;12802;53.390;-2.328;2023-07-16T10:30:26;5.65;;;1.80;;
24681;SDS011;12802;53.390;-2.328;2023-07-16T10:32:52;5.63;;;2.03;;
24681;SDS011;12802;53.390;-2.328;2023-07-16T10:35:18;6.15;;;1.58;;
24681;SDS011;12802;53.390;-2.328;2023-07-16T10:37:44;8.27;;;1.70;;
24681;SDS011;12802;53.390;-2.328;2023-07-16T10:40:11;5.43;;;1.67;;
24681;SDS011;12802;53.390;-2.328;2023-07-16T10:42:40;5.57;;;1.50;;
24681;SDS011;12802;53.390;-2.328;2023-07-16T10:45:08;5.57;;;1.45;;
24681;SDS011;12802;53.390;-2.328;2023-07-16T10:47:35;6.80;;;1.70;;
24681;SDS011;12802;53.390;-2.328;2023-07-16T10:50:05;9.65;;;1.40;;
24681;SDS011;12802;53.390;-2.328;2023-07-16T10:52:33;7.47;;;1.55;;
24681;SDS011;12802;53.390;-2.328;2023-07-16T10:55:00;10.82;;;1.92;;
24681;SDS011;12802;53.390;-2.328;2023-07-16T10:57:30;5.63;;;1.60;;
24681;SDS011;12802;53.390;-2.328;2023-07-16T10:59:57;8.75;;;2.15;;
24681;SDS011;12802;53.390;-2.328;2023-07-16T11:02:23;6.90;;;1.65;;
24681;SDS011;12802;53.390;-2.328;2023-07-16T11:04:50;7.00;;;1.80;;
24681;SDS011;12802;53.390;-2.328;2023-07-16T11:07:20;8.38;;;1.60;;
24681;SDS011;12802;53.390;-2.328;2023-07-16T11:09:47;7.40;;;1.73;;
24681;SDS011;12802;53.390;-2.328;2023-07-16T11:12:21;9.05;;;1.60;;
24681;SDS011;12802;53.390;-2.328;2023-07-16T11:14:48;7.35;;;1.70;;
24681;SDS011;12802;53.390;-2.328;2023-07-16T11:17:16;6.93;;;1.58;;
24681;SDS011;12802;53.390;-2.328;2023-07-16T11:19:46;5.80;;;1.75;;
24681;SDS011;12802;53.390;-2.328;2023-07-16T11:22:13;5.80;;;1.80;;
24681;SDS011;12802;53.390;-2.328;2023-07-16T11:24:44;6.57;;;1.80;;
24681;SDS011;12802;53.390;-2.328;2023-07-16T11:27:14;5.60;;;1.70;;
24681;SDS011;12802;53.390;-2.328;2023-07-16T11:29:48;12.82;;;2.13;;
24681;SDS011;12802;53.390;-2.328;2023-07-16T11:32:34;9.45;;;2.08;;
24681;SDS011;12802;53.390;-2.328;2023-07-16T11:35:08;5.80;;;1.65;;
24681;SDS011;12802;53.390;-2.328;2023-07-16T11:37:36;9.43;;;1.80;;
24681;SDS011;12802;53.390;-2.328;2023-07-16T11:40:03;6.72;;;1.50;;
24681;SDS011;12802;53.390;-2.328;2023-07-16T11:42:34;5.78;;;1.90;;
24681;SDS011;12802;53.390;-2.328;2023-07-16T11:45:02;6.55;;;1.70;;
24681;SDS011;12802;53.390;-2.328;2023-07-16T11:47:29;6.15;;;1.85;;
24681;SDS011;12802;53.390;-2.328;2023-07-16T11:49:56;7.53;;;1.33;;
24681;SDS011;12802;53.390;-2.328;2023-07-16T11:52:24;8.20;;;1.52;;
24681;SDS011;12802;53.390;-2.328;2023-07-16T11:54:57;4.38;;;1.55;;
24681;SDS011;12802;53.390;-2.328;2023-07-16T11:57:27;8.68;;;1.60;;
24681;SDS011;12802;53.390;-2.328;2023-07-16T11:59:53;5.65;;;1.60;;
24681;SDS011;12802;53.390;-2.328;2023-07-16T12:02:19;13.35;;;1.48;;
24681;SDS011;12802;53.390;-2.328;2023-07-16T12:04:45;6.85;;;1.38;;
24681;SDS011;12802;53.390;-2.328;2023-07-16T12:07:11;10.05;;;1.55;;
24681;SDS011;12802;53.390;-2.328;2023-07-16T12:09:37;5.32;;;1.65;;
24681;SDS011;12802;53.390;-2.328;2023-07-16T12:12:03;6.35;;;1.65;;
24681;SDS011;12802;53.390;-2.328;2023-07-16T12:14:30;4.55;;;1.70;;
24681;SDS011;12802;53.390;-2.328;2023-07-16T12:16:56;3.58;;;1.33;;
24681;SDS011;12802;53.390;-2.328;2023-07-16T12:19:22;11.13;;;1.92;;
24681;SDS011;12802;53.390;-2.328;2023-07-16T12:21:48;5.10;;;1.88;;
24681;SDS011;12802;53.390;-2.328;2023-07-16T12:24:14;4.88;;;1.65;;
24681;SDS011;12802;53.390;-2.328;2023-07-16T12:26:39;9.25;;;1.80;;
24681;SDS011;12802;53.390;-2.328;2023-07-16T12:29:05;11.15;;;1.88;;
24681;SDS011;12802;53.390;-2.328;2023-07-16T12:31:31;6.85;;;2.03;;
24681;SDS011;12802;53.390;-2.328;2023-07-16T12:33:57;11.55;;;2.30;;
24681;SDS011;12802;53.390;-2.328;2023-07-16T12:36:29;6.72;;;1.88;;
24681;SDS011;12802;53.390;-2.328;2023-07-16T12:38:55;6.70;;;2.10;;
24681;SDS011;12802;53.390;-2.328;2023-07-16T12:41:21;4.25;;;1.77;;
24681;SDS011;12802;53.390;-2.328;2023-07-16T12:43:47;6.22;;;1.90;;
24681;SDS011;12802;53.390;-2.328;2023-07-16T12:46:13;10.93;;;2.38;;
24681;SDS011;12802;53.390;-2.328;2023-07-16T12:48:39;5.43;;;1.60;;
24681;SDS011;12802;53.390;-2.328;2023-07-16T12:51:04;8.65;;;1.88;;
24681;SDS011;12802;53.390;-2.328;2023-07-16T12:53:30;8.43;;;1.73;;
24681;SDS011;12802;53.390;-2.328;2023-07-16T12:55:56;8.27;;;1.73;;
24681;SDS011;12802;53.390;-2.328;2023-07-16T12:58:21;5.38;;;1.60;;
24681;SDS011;12802;53.390;-2.328;2023-07-16T13:00:47;6.93;;;1.75;;
24681;SDS011;12802;53.390;-2.328;2023-07-16T13:03:13;6.30;;;1.48;;
24681;SDS011;12802;53.390;-2.328;2023-07-16T13:05:41;6.68;;;1.77;;
24681;SDS011;12802;53.390;-2.328;2023-07-16T13:08:08;5.32;;;2.00;;
24681;SDS011;12802;53.390;-2.328;2023-07-16T13:10:35;6.32;;;1.73;;
24681;SDS011;12802;53.390;-2.328;2023-07-16T13:13:01;5.30;;;2.10;;
24681;SDS011;12802;53.390;-2.328;2023-07-16T13:15:28;5.30;;;1.50;;
24681;SDS011;12802;53.390;-2.328;2023-07-16T13:17:55;8.07;;;2.00;;
24681;SDS011;12802;53.390;-2.328;2023-07-16T13:20:20;3.63;;;1.38;;
24681;SDS011;12802;53.390;-2.328;2023-07-16T13:22:47;6.10;;;1.60;;
24681;SDS011;12802;53.390;-2.328;2023-07-16T13:25:13;4.97;;;1.70;;
24681;SDS011;12802;53.390;-2.328;2023-07-16T13:27:39;6.78;;;1.63;;
24681;SDS011;12802;53.390;-2.328;2023-07-16T13:30:05;6.13;;;1.73;;
24681;SDS011;12802;53.390;-2.328;2023-07-16T13:32:31;6.70;;;1.70;;
24681;SDS011;12802;53.390;-2.328;2023-07-16T13:34:57;6.72;;;1.52;;
24681;SDS011;12802;53.390;-2.328;2023-07-16T13:37:23;8.80;;;2.00;;
24681;SDS011;12802;53.390;-2.328;2023-07-16T13:39:49;6.82;;;1.88;;
24681;SDS011;12802;53.390;-2.328;2023-07-16T13:42:14;5.45;;;1.58;;
24681;SDS011;12802;53.390;-2.328;2023-07-16T13:44:40;9.48;;;2.28;;
24681;SDS011;12802;53.390;-2.328;2023-07-16T13:47:06;9.07;;;2.20;;
24681;SDS011;12802;53.390;-2.328;2023-07-16T13:49:32;7.93;;;2.10;;
24681;SDS011;12802;53.390;-2.328;2023-07-16T13:51:57;4.32;;;2.00;;
24681;SDS011;12802;53.390;-2.328;2023-07-16T13:54:23;8.68;;;2.30;;
24681;SDS011;12802;53.390;-2.328;2023-07-16T13:56:49;7.90;;;2.30;;
24681;SDS011;12802;53.390;-2.328;2023-07-16T13:59:15;5.28;;;2.25;;
24681;SDS011;12802;53.390;-2.328;2023-07-16T14:01:41;10.63;;;2.40;;
24681;SDS011;12802;53.390;-2.328;2023-07-16T14:04:07;12.75;;;2.58;;
24681;SDS011;12802;53.390;-2.328;2023-07-16T14:06:33;10.38;;;2.60;;
24681;SDS011;12802;53.390;-2.328;2023-07-16T14:08:59;8.23;;;2.55;;
24681;SDS011;12802;53.390;-2.328;2023-07-16T14:11:25;8.00;;;2.50;;
24681;SDS011;12802;53.390;-2.328;2023-07-16T14:13:51;8.25;;;2.22;;
24681;SDS011;12802;53.390;-2.328;2023-07-16T14:16:18;6.13;;;2.20;;
24681;SDS011;12802;53.390;-2.328;2023-07-16T14:18:44;6.78;;;2.05;;
24681;SDS011;12802;53.390;-2.328;2023-07-16T14:21:10;7.22;;;2.25;;
24681;SDS011;12802;53.390;-2.328;2023-07-16T14:23:36;13.48;;;2.35;;
24681;SDS011;12802;53.390;-2.328;2023-07-16T14:26:02;7.80;;;1.88;;
24681;SDS011;12802;53.390;-2.328;2023-07-16T14:28:28;5.65;;;1.95;;